createdAt,value
2023-02-12T00:02:09.613Z,99936.59
2023-02-12T00:07:11.431Z,99942.56
2023-02-12T00:12:13.633Z,99947.63
2023-02-12T00:17:15.634Z,99954.44
2023-02-12T00:22:17.671Z,99952.69
2023-02-12T00:27:19.731Z,99946.72
2023-02-12T00:32:24.770Z,99953.53
2023-02-12T00:37:26.788Z,99956.94
2023-02-12T00:42:28.791Z,99966.31
2023-02-12T00:47:31.152Z,99972.28
2023-02-12T00:52:33.324Z,99962.81
2023-02-12T00:57:35.476Z,99965.41
2023-02-12T01:02:37.641Z,99970.56
2023-02-12T01:07:41.888Z,99979.09
2023-02-12T01:12:43.741Z,99982.59
2023-02-12T01:17:46.303Z,99978.28
2023-02-12T01:22:48.320Z,99982.59
2023-02-12T01:27:54.120Z,99978.28
2023-02-12T01:33:46.118Z,99982.50
2023-02-12T01:38:48.261Z,99986.00
2023-02-12T01:44:06.530Z,99974.88
2023-02-12T01:49:42.844Z,99983.34
2023-02-12T01:54:44.763Z,99988.56
2023-02-12T01:59:50.670Z,99985.09
2023-02-12T02:04:59.882Z,99994.56
2023-02-12T02:10:04.021Z,99989.41
2023-02-12T02:15:07.186Z,99981.59
2023-02-12T02:20:48.298Z,99985.81
2023-02-12T02:26:09.165Z,99985.00
2023-02-12T02:31:40.045Z,99977.25
2023-02-12T02:37:06.267Z,99984.06
2023-02-12T02:42:40.518Z,99987.56
2023-02-12T02:47:58.430Z,99991.88
2023-02-12T02:53:06.600Z,99989.31
2023-02-12T02:58:42.871Z,99997.88
2023-02-12T03:03:52.353Z,100004.69
2023-02-12T03:09:03.706Z,100004.69
2023-02-12T03:14:18.300Z,100014.97
2023-02-12T03:19:36.626Z,100018.31
2023-02-12T03:24:54.084Z,100019.97
2023-02-12T03:29:58.670Z,100023.28
2023-02-12T03:35:22.803Z,100033.59
2023-02-12T03:40:38.433Z,100046.38
2023-02-12T03:46:01.328Z,100055.84
2023-02-12T03:51:17.735Z,100061.00
2023-02-12T03:56:26.271Z,100071.31
2023-02-12T04:01:29.204Z,100075.72
2023-02-12T04:06:31.544Z,100082.63
2023-02-12T04:11:36.416Z,100090.34
2023-02-12T04:16:48.330Z,100092.91
2023-02-12T04:22:09.924Z,100095.41
2023-02-12T04:27:26.521Z,100096.25
2023-02-12T04:32:39.777Z,100095.41
2023-02-12T04:38:19.865Z,100100.56
2023-02-12T04:43:36.967Z,100086.75
2023-02-12T04:48:59.354Z,100097.91
2023-02-12T04:54:01.210Z,100107.47
2023-02-12T04:59:03.317Z,100108.19
2023-02-12T05:04:11.549Z,100112.53
2023-02-12T05:09:19.027Z,100115.09
2023-02-12T05:14:20.920Z,100109.94
2023-02-12T05:19:22.719Z,100117.69
2023-02-12T05:24:24.650Z,100114.19
2023-02-12T05:29:26.596Z,100115.84
2023-02-12T05:34:28.464Z,100121.81
2023-02-12T05:39:30.376Z,100128.72
2023-02-12T05:44:32.251Z,100127.06
2023-02-12T05:49:34.675Z,100125.31
2023-02-12T05:54:36.672Z,100130.47
2023-02-12T05:59:39.507Z,100135.63
2023-02-12T06:04:41.678Z,100129.63
2023-02-12T06:09:43.510Z,100140.69
2023-02-12T06:14:45.337Z,100150.94
2023-02-12T06:19:56.077Z,100152.59
2023-02-12T06:24:58.087Z,100161.06
2023-02-12T06:30:00.134Z,100164.47
2023-02-12T06:35:02.000Z,100170.56
2023-02-12T06:40:07.293Z,100182.53
2023-02-12T06:45:09.353Z,100193.66
2023-02-12T06:50:11.689Z,100201.31
2023-02-12T06:55:13.773Z,100209.03
2023-02-12T07:00:16.144Z,100208.94
2023-02-12T07:05:43.416Z,100223.50
2023-02-12T07:10:50.141Z,100220.91
2023-02-12T07:15:51.981Z,100215.75
2023-02-12T07:21:19.725Z,100223.41
2023-02-12T07:26:22.393Z,100226.72
2023-02-12T07:31:24.834Z,100232.72
2023-02-12T07:36:30.378Z,100236.13
2023-02-12T07:41:35.582Z,100237.69
2023-02-12T07:46:42.067Z,100239.28
2023-02-12T07:51:43.952Z,100246.84
2023-02-12T07:56:47.483Z,100248.41
2023-02-12T08:01:51.566Z,100249.06
2023-02-12T08:06:55.971Z,100241.81
2023-02-12T08:11:59.077Z,100247.53
2023-02-12T08:17:08.480Z,100246.53
2023-02-12T08:22:10.240Z,100252.63
2023-02-12T08:27:12.105Z,100256.84
2023-02-12T08:32:14.786Z,100267.91
2023-02-12T08:37:16.942Z,100259.25
2023-02-12T08:42:44.806Z,100267.72
2023-02-12T08:47:48.337Z,100274.72
2023-02-12T08:52:50.375Z,100279.78
2023-02-12T08:58:03.060Z,100276.38
2023-02-12T09:03:06.689Z,100287.44
2023-02-12T09:08:08.796Z,100291.59
2023-02-12T09:13:13.341Z,100300.91
2023-02-12T09:18:15.913Z,100300.56
2023-02-12T09:23:17.847Z,100307.38
2023-02-12T09:28:19.734Z,100311.63
2023-02-12T09:33:23.077Z,100314.22
2023-02-12T09:38:24.977Z,100313.94
2023-02-12T09:43:53.173Z,100318.75
2023-02-12T09:49:09.841Z,100320.34
2023-02-12T09:54:17.649Z,100325.31
2023-02-12T09:59:35.227Z,100337.88
2023-02-12T10:04:37.214Z,100333.44
2023-02-12T10:09:57.071Z,100336.03
2023-02-12T10:15:27.615Z,100337.50
2023-02-12T10:20:33.526Z,100344.91
2023-02-12T10:25:45.113Z,100347.41
2023-02-12T10:30:56.878Z,100345.47
2023-02-12T10:36:23.361Z,100342.72
2023-02-12T10:41:28.951Z,100341.63
2023-02-12T10:46:32.247Z,100345.59
2023-02-12T10:51:48.957Z,100339.97
2023-02-12T10:56:51.598Z,100343.97
2023-02-12T11:01:53.517Z,100338.53
2023-02-12T11:07:08.984Z,100329.69
2023-02-12T11:12:32.138Z,100327.66
2023-02-12T11:17:36.110Z,100320.47
2023-02-12T11:22:38.175Z,100315.09
2023-02-12T11:27:39.968Z,100316.59
2023-02-12T11:32:41.962Z,100314.75
2023-02-12T11:37:46.422Z,100312.81
2023-02-12T11:43:09.690Z,100313.72
2023-02-12T11:48:22.826Z,100312.91
2023-02-12T11:53:37.645Z,100313.53
2023-02-12T11:58:40.369Z,100305.59
2023-02-12T12:03:48.326Z,100307.16
2023-02-12T12:08:55.047Z,100310.41
2023-02-12T12:14:08.271Z,100304.41
2023-02-12T12:19:38.716Z,100315.66
2023-02-12T12:25:06.931Z,100312.44
2023-02-12T12:30:22.323Z,100310.03
2023-02-12T12:35:37.695Z,100298.31
2023-02-12T12:41:03.934Z,100295.84
2023-02-12T12:46:24.459Z,100296.00
2023-02-12T12:51:32.659Z,100292.59
2023-02-12T12:56:46.682Z,100292.59
2023-02-12T13:02:19.386Z,100285.78
2023-02-12T13:08:18.607Z,100284.66
2023-02-12T13:13:26.626Z,100281.06
2023-02-12T13:18:33.283Z,100284.47
2023-02-12T13:23:57.577Z,100289.75
2023-02-12T13:29:13.024Z,100289.94
2023-02-12T13:34:17.847Z,100292.59
2023-02-12T13:39:34.114Z,100280.63
2023-02-12T13:45:06.702Z,100277.09
2023-02-12T13:50:46.112Z,100275.25
2023-02-12T13:56:07.814Z,100290.03
2023-02-12T14:01:36.506Z,100291.59
2023-02-12T14:06:38.596Z,100289.09
2023-02-12T14:11:53.402Z,100283.00
2023-02-12T14:16:55.394Z,100285.78
2023-02-12T14:21:57.185Z,100292.78
2023-02-12T14:26:59.299Z,100294.44
2023-02-12T14:32:01.302Z,100290.22
2023-02-12T14:37:36.596Z,100293.53
2023-02-12T14:42:42.418Z,100289.28
2023-02-12T14:47:51.185Z,100300.63
2023-02-12T14:53:05.328Z,100292.78
2023-02-12T14:58:19.665Z,100296.09
2023-02-12T15:03:28.021Z,100297.78
2023-02-12T15:08:45.403Z,100295.19
2023-02-12T15:13:55.216Z,100301.28
2023-02-12T15:19:22.349Z,100296.09
2023-02-12T15:24:26.657Z,100292.78
2023-02-12T15:29:42.058Z,100298.97
2023-02-12T15:34:48.061Z,100299.06
2023-02-12T15:39:53.726Z,100316.31
2023-02-12T15:45:10.423Z,100314.66
2023-02-12T15:50:14.773Z,100305.34
2023-02-12T15:55:23.237Z,100303.66
2023-02-12T16:00:41.589Z,100309.84
2023-02-12T16:05:43.809Z,100311.69
2023-02-12T16:10:51.739Z,100312.69
2023-02-12T16:16:11.605Z,100314.38
2023-02-12T16:21:19.503Z,100322.38
2023-02-12T16:26:23.244Z,100328.38
2023-02-12T16:31:27.253Z,100325.25
2023-02-12T16:36:32.129Z,100334.81
2023-02-12T16:41:52.618Z,100340.91
2023-02-12T16:46:59.683Z,100344.41
2023-02-12T16:52:39.127Z,100344.41
2023-02-12T16:57:41.142Z,100342.84
2023-02-12T17:02:43.624Z,100347.16
2023-02-12T17:07:47.013Z,100349.84
2023-02-12T17:12:51.624Z,100347.34
2023-02-12T17:23:11.726Z,100346.69
2023-02-12T17:28:13.598Z,100358.94
2023-02-12T17:33:16.776Z,100356.44
2023-02-12T17:38:19.141Z,100359.94
2023-02-12T17:43:21.375Z,100371.09
2023-02-12T17:48:25.195Z,100372.03
2023-02-12T17:53:32.760Z,100378.94
2023-02-12T17:58:34.541Z,100390.91
2023-02-12T18:03:36.857Z,100373.78
2023-02-12T18:08:39.031Z,100378.84
2023-02-12T18:13:42.655Z,100390.09
2023-02-12T18:18:44.722Z,100384.94
2023-02-12T18:23:47.061Z,100387.50
2023-02-12T18:28:49.533Z,100388.44
2023-02-12T18:33:51.893Z,100394.50
2023-02-12T18:38:53.770Z,100389.44
2023-02-12T18:43:58.154Z,100385.28
2023-02-12T18:49:00.805Z,100386.09
2023-02-12T18:54:07.429Z,100375.78
2023-02-12T18:59:13.031Z,100376.63
2023-02-12T19:04:16.290Z,100387.69
2023-02-12T19:09:21.589Z,100382.44
2023-02-12T19:14:24.699Z,100367.78
2023-02-12T19:19:27.675Z,100373.13
2023-02-12T19:24:44.399Z,100373.28
2023-02-12T19:29:47.621Z,100364.72
2023-02-12T19:34:49.352Z,100366.56
2023-02-12T19:39:51.251Z,100352.81
2023-02-12T19:44:53.337Z,100358.81
2023-02-12T19:49:55.814Z,100354.56
2023-02-12T19:54:58.722Z,100358.06
2023-02-12T20:00:00.506Z,100361.47
2023-02-12T20:05:02.451Z,100363.31
2023-02-12T20:10:05.002Z,100356.31
2023-02-12T20:15:07.471Z,100352.06
2023-02-12T20:20:10.428Z,100353.00
2023-02-12T20:25:12.458Z,100351.34
2023-02-12T20:30:24.181Z,100346.25
2023-02-12T20:35:26.044Z,100353.16
2023-02-12T20:40:28.081Z,100351.50
2023-02-12T20:45:29.915Z,100361.16
2023-02-12T20:50:31.735Z,100364.66
2023-02-12T20:55:33.974Z,100366.41
2023-02-12T21:00:36.016Z,100364.75
2023-02-12T21:05:38.031Z,100359.59
2023-02-12T21:10:39.800Z,100360.44
2023-02-12T21:15:41.950Z,100359.50
2023-02-12T21:20:43.777Z,100355.34
2023-02-12T21:25:45.785Z,100355.53
2023-02-12T21:30:47.586Z,100365.00
2023-02-12T21:35:49.394Z,100362.44
2023-02-12T21:40:51.373Z,100358.19
2023-02-12T21:45:53.209Z,100362.53
2023-02-12T21:50:57.296Z,100361.03
2023-02-12T21:56:05.649Z,100357.72
2023-02-12T22:01:09.864Z,100357.72
2023-02-12T22:06:14.034Z,100352.72
2023-02-12T22:11:16.562Z,100356.38
2023-02-12T22:16:24.611Z,100359.97
2023-02-12T22:21:29.937Z,100347.06
2023-02-12T22:26:32.567Z,100351.22
2023-02-12T22:31:36.690Z,100350.31
2023-02-12T22:36:39.642Z,100351.06
2023-02-12T22:41:44.501Z,100351.97
2023-02-12T22:46:46.298Z,100363.97
2023-02-12T22:51:48.335Z,100366.44
2023-02-12T22:56:52.023Z,100365.44
2023-02-12T23:01:53.821Z,100369.69
2023-02-12T23:07:04.427Z,100362.88
2023-02-12T23:12:07.999Z,100355.97
2023-02-12T23:17:09.831Z,100356.78
2023-02-12T23:22:11.715Z,100346.47
2023-02-12T23:27:13.740Z,100363.63
2023-02-12T23:32:15.545Z,100347.22
2023-02-12T23:37:17.480Z,100349.78
2023-02-12T23:42:19.299Z,100346.31
2023-02-12T23:47:21.169Z,100348.88
2023-02-12T23:52:22.967Z,100348.03
2023-02-12T23:57:25.083Z,100343.72
